Time,TemperatureF,DewpointF,PressureIn,WindDirection,WindDirectionDegrees,WindSpeedMPH,WindSpeedGustMPH,Humidity,HourlyPrecipIn,Conditions,Clouds,dailyrainin,SoftwareType,DateUTC
2013-04-09 00:13:00,34.0,-99.9,-100.00,North,-999,0.0,0.0,-999,-99.99,,,-99.99,,2013-04-09 05:13:00,
2013-04-09 00:22:00,34.0,-99.9,-100.00,North,-999,0.0,0.0,-999,-99.99,,,-99.99,,2013-04-09 05:22:00,
2013-04-09 00:33:00,34.0,-99.9,-100.00,North,-999,0.0,0.0,-999,-99.99,,,-99.99,,2013-04-09 05:33:00,
2013-04-09 00:40:00,34.0,-99.9,-100.00,SW,217,3.0,4.0,-999,-99.99,,,-99.99,,2013-04-09 05:40:00,
2013-04-09 01:12:00,34.0,-99.9,-100.00,SW,217,3.0,4.0,-999,-99.99,,,-99.99,,2013-04-09 06:12:00,
2013-04-09 01:22:00,34.0,-99.9,-100.00,SW,217,3.0,4.0,-999,-99.99,,,-99.99,,2013-04-09 06:22:00,
2013-04-09 01:32:00,34.0,-99.9,-100.00,SW,217,3.0,4.0,-999,-99.99,,,-99.99,,2013-04-09 06:32:00,
2013-04-09 01:40:00,33.0,-99.9,-100.00,NNW,338,2.0,4.0,-999,-99.99,,,-99.99,,2013-04-09 06:40:00,
2013-04-09 02:13:00,33.0,-99.9,-100.00,NNW,338,2.0,4.0,-999,-99.99,,,-99.99,,2013-04-09 07:13:00,
2013-04-09 02:22:00,33.0,-99.9,-100.00,NNW,338,2.0,4.0,-999,-99.99,,,-99.99,,2013-04-09 07:22:00,
2013-04-09 02:32:00,33.0,-99.9,-100.00,NNW,338,2.0,4.0,-999,-99.99,,,-99.99,,2013-04-09 07:32:00,
2013-04-09 02:40:00,34.0,-99.9,-100.00,SSW,192,2.0,2.0,-999,-99.99,,,-99.99,,2013-04-09 07:40:00,
2013-04-09 03:13:00,34.0,-99.9,-100.00,SSW,192,2.0,2.0,-999,-99.99,,,-99.99,,2013-04-09 08:13:00,
2013-04-09 03:22:00,34.0,-99.9,-100.00,SSW,192,2.0,2.0,-999,-99.99,,,-99.99,,2013-04-09 08:22:00,
2013-04-09 03:32:00,34.0,-99.9,-100.00,SSW,192,2.0,2.0,-999,-99.99,,,-99.99,,2013-04-09 08:32:00,
2013-04-09 03:40:00,33.0,-99.9,-100.00,NE,44,1.0,1.0,-999,-99.99,,,-99.99,,2013-04-09 08:40:00,
2013-04-09 04:13:00,33.0,-99.9,-100.00,NE,44,1.0,1.0,-999,-99.99,,,-99.99,,2013-04-09 09:13:00,
2013-04-09 04:23:00,33.0,-99.9,-100.00,NE,44,1.0,1.0,-999,-99.99,,,-99.99,,2013-04-09 09:23:00,
2013-04-09 04:33:00,33.0,-99.9,-100.00,NE,44,1.0,1.0,-999,-99.99,,,-99.99,,2013-04-09 09:33:00,
2013-04-09 04:40:00,33.0,-99.9,-100.00,SSE,165,2.0,2.0,-999,-99.99,,,-99.99,,2013-04-09 09:40:00,
2013-04-09 05:13:00,33.0,-99.9,-100.00,SSE,165,2.0,2.0,-999,-99.99,,,-99.99,,2013-04-09 10:13:00,
2013-04-09 05:24:00,33.0,-99.9,-100.00,SSE,165,2.0,2.0,-999,-99.99,,,-99.99,,2013-04-09 10:24:00,
2013-04-09 05:33:00,33.0,-99.9,-100.00,SSE,165,2.0,2.0,-999,-99.99,,,-99.99,,2013-04-09 10:33:00,
2013-04-09 06:12:00,33.0,-99.9,-100.00,SSW,206,4.0,4.0,-999,-99.99,,,-99.99,,2013-04-09 11:12:00,
2013-04-09 06:22:00,33.0,-99.9,-100.00,SSW,206,4.0,4.0,-999,-99.99,,,-99.99,,2013-04-09 11:22:00,
2013-04-09 06:33:00,33.0,-99.9,-100.00,SSW,198,2.0,6.0,-999,-99.99,,,-99.99,,2013-04-09 11:33:00,
2013-04-09 06:40:00,34.0,-99.9,-100.00,North,-999,0.0,0.0,-999,-99.99,,,-99.99,,2013-04-09 11:40:00,
2013-04-09 06:43:00,33.0,-99.9,-100.00,SSW,198,2.0,6.0,-999,-99.99,,,-99.99,,2013-04-09 11:43:00,
2013-04-09 06:52:00,33.0,-99.9,-100.00,SSW,198,2.0,6.0,-999,-99.99,,,-99.99,,2013-04-09 11:52:00,
2013-04-09 07:02:00,33.0,-99.9,-100.00,SSW,198,2.0,6.0,-999,-99.99,,,-99.99,,2013-04-09 12:02:00,
2013-04-09 07:12:00,34.0,-99.9,-100.00,North,-999,0.0,0.0,-999,-99.99,,,-99.99,,2013-04-09 12:12:00,
2013-04-09 07:22:00,34.0,-99.9,-100.00,North,-999,0.0,0.0,-999,-99.99,,,-99.99,,2013-04-09 12:22:00,
2013-04-09 07:33:00,34.0,-99.9,-100.00,North,-999,0.0,0.0,-999,-99.99,,,-99.99,,2013-04-09 12:33:00,
2013-04-09 07:40:00,34.0,-99.9,-100.00,North,-999,0.0,0.0,-999,-99.99,,,-99.99,,2013-04-09 12:40:00,
2013-04-09 08:13:00,34.0,-99.9,-100.00,North,-999,0.0,0.0,-999,-99.99,,,-99.99,,2013-04-09 13:13:00,
2013-04-09 08:23:00,34.0,-99.9,-100.00,North,-999,0.0,0.0,-999,-99.99,,,-99.99,,2013-04-09 13:23:00,
2013-04-09 08:33:00,34.0,-99.9,-100.00,North,-999,0.0,0.0,-999,-99.99,,,-99.99,,2013-04-09 13:33:00,
2013-04-09 08:40:00,36.0,-99.9,-100.00,NNE,27,1.0,2.0,-999,-99.99,,,-99.99,,2013-04-09 13:40:00,
2013-04-09 09:12:00,36.0,-99.9,-100.00,NNE,27,1.0,2.0,-999,-99.99,,,-99.99,,2013-04-09 14:12:00,
2013-04-09 09:22:00,36.0,-99.9,-100.00,NNE,27,1.0,2.0,-999,-99.99,,,-99.99,,2013-04-09 14:22:00,
2013-04-09 09:33:00,36.0,-99.9,-100.00,NNE,27,1.0,2.0,-999,-99.99,,,-99.99,,2013-04-09 14:33:00,
2013-04-09 09:40:00,36.0,-99.9,-100.00,NNE,25,2.0,5.0,-999,-99.99,,,-99.99,,2013-04-09 14:40:00,
2013-04-09 10:13:00,36.0,-99.9,-100.00,NNE,25,2.0,5.0,-999,-99.99,,,-99.99,,2013-04-09 15:13:00,
2013-04-09 10:23:00,36.0,-99.9,-100.00,NNE,25,2.0,5.0,-999,-99.99,,,-99.99,,2013-04-09 15:23:00,
2013-04-09 10:35:00,36.0,-99.9,-100.00,NNE,25,2.0,5.0,-999,-99.99,,,-99.99,,2013-04-09 15:35:00,
2013-04-09 10:40:00,35.0,-99.9,-100.00,NNE,22,10.0,14.0,-999,-99.99,,,-99.99,,2013-04-09 15:40:00,
2013-04-09 11:24:00,35.0,-99.9,-100.00,NNE,22,10.0,14.0,-999,-99.99,,,-99.99,,2013-04-09 16:24:00,
2013-04-09 11:34:00,35.0,-99.9,-100.00,NNE,22,10.0,14.0,-999,-99.99,,,-99.99,,2013-04-09 16:34:00,
2013-04-09 11:40:00,35.0,-99.9,-100.00,NNE,19,11.0,14.0,-999,-99.99,,,-99.99,,2013-04-09 16:40:00,
2013-04-09 12:13:00,35.0,-99.9,-100.00,NNE,19,11.0,14.0,-999,-99.99,,,-99.99,,2013-04-09 17:13:00,
2013-04-09 12:24:00,35.0,-99.9,-100.00,NNE,19,11.0,14.0,-999,-99.99,,,-99.99,,2013-04-09 17:24:00,
2013-04-09 12:33:00,35.0,-99.9,-100.00,NNE,19,11.0,14.0,-999,-99.99,,,-99.99,,2013-04-09 17:33:00,
2013-04-09 12:40:00,35.0,-99.9,-100.00,NE,41,10.0,14.0,-999,-99.99,,,-99.99,,2013-04-09 17:40:00,
2013-04-09 13:13:00,35.0,-99.9,-100.00,NE,41,10.0,14.0,-999,-99.99,,,-99.99,,2013-04-09 18:13:00,
2013-04-09 13:23:00,35.0,-99.9,-100.00,NE,41,10.0,14.0,-999,-99.99,,,-99.99,,2013-04-09 18:23:00,
2013-04-09 13:33:00,35.0,-99.9,-100.00,NE,41,10.0,14.0,-999,-99.99,,,-99.99,,2013-04-09 18:33:00,
2013-04-09 14:40:00,35.0,-99.9,-100.00,NE,48,17.0,22.0,-999,-99.99,,,-99.99,,2013-04-09 19:40:00,
2013-04-09 15:13:00,35.0,-99.9,-100.00,NE,48,17.0,22.0,-999,-99.99,,,-99.99,,2013-04-09 20:13:00,
2013-04-09 15:23:00,35.0,-99.9,-100.00,NE,48,17.0,22.0,-999,-99.99,,,-99.99,,2013-04-09 20:23:00,
2013-04-09 15:35:00,35.0,-99.9,-100.00,NE,48,17.0,22.0,-999,-99.99,,,-99.99,,2013-04-09 20:35:00,
2013-04-09 15:40:00,35.0,-99.9,-100.00,NE,50,15.0,19.0,-999,-99.99,,,-99.99,,2013-04-09 20:40:00,
2013-04-09 16:14:00,35.0,-99.9,-100.00,NE,50,15.0,19.0,-999,-99.99,,,-99.99,,2013-04-09 21:14:00,
2013-04-09 16:33:00,35.0,-99.9,-100.00,NE,50,15.0,19.0,-999,-99.99,,,-99.99,,2013-04-09 21:33:00,
2013-04-09 16:40:00,36.0,-99.9,-100.00,NE,48,14.0,20.0,-999,-99.99,,,-99.99,,2013-04-09 21:40:00,
2013-04-09 17:13:00,36.0,-99.9,-100.00,NE,48,14.0,20.0,-999,-99.99,,,-99.99,,2013-04-09 22:13:00,
2013-04-09 17:23:00,36.0,-99.9,-100.00,NE,48,14.0,20.0,-999,-99.99,,,-99.99,,2013-04-09 22:23:00,
2013-04-09 17:34:00,36.0,-99.9,-100.00,NE,48,14.0,20.0,-999,-99.99,,,-99.99,,2013-04-09 22:34:00,
2013-04-09 17:40:00,39.0,-99.9,-100.00,ENE,61,13.0,16.0,-999,-99.99,,,-99.99,,2013-04-09 22:40:00,
2013-04-09 18:13:00,39.0,-99.9,-100.00,ENE,61,13.0,16.0,-999,-99.99,,,-99.99,,2013-04-09 23:13:00,
2013-04-09 18:23:00,39.0,-99.9,-100.00,ENE,61,13.0,16.0,-999,-99.99,,,-99.99,,2013-04-09 23:23:00,
2013-04-09 18:33:00,39.0,-99.9,-100.00,ENE,61,13.0,16.0,-999,-99.99,,,-99.99,,2013-04-09 23:33:00,
2013-04-09 18:40:00,34.0,-99.9,-100.00,NNE,33,8.0,10.0,-999,-99.99,,,-99.99,,2013-04-09 23:40:00,
2013-04-09 19:23:00,34.0,-99.9,-100.00,NNE,33,8.0,10.0,-999,-99.99,,,-99.99,,2013-04-10 00:23:00,
2013-04-09 19:33:00,34.0,-99.9,-100.00,NNE,33,8.0,10.0,-999,-99.99,,,-99.99,,2013-04-10 00:33:00,
2013-04-09 19:40:00,33.0,-99.9,-100.00,NE,52,2.0,3.0,-999,-99.99,,,-99.99,,2013-04-10 00:40:00,
2013-04-09 20:13:00,33.0,-99.9,-100.00,NE,52,2.0,3.0,-999,-99.99,,,-99.99,,2013-04-10 01:13:00,
2013-04-09 20:23:00,33.0,-99.9,-100.00,NE,52,2.0,3.0,-999,-99.99,,,-99.99,,2013-04-10 01:23:00,
2013-04-09 20:33:00,33.0,-99.9,-100.00,NE,52,2.0,3.0,-999,-99.99,,,-99.99,,2013-04-10 01:33:00,
2013-04-09 20:40:00,33.0,-99.9,-100.00,ENE,64,4.0,7.0,-999,-99.99,,,-99.99,,2013-04-10 01:40:00,
2013-04-09 21:13:00,33.0,-99.9,-100.00,ENE,64,4.0,7.0,-999,-99.99,,,-99.99,,2013-04-10 02:13:00,
2013-04-09 21:23:00,33.0,-99.9,-100.00,ENE,64,4.0,7.0,-999,-99.99,,,-99.99,,2013-04-10 02:23:00,
2013-04-09 21:33:00,33.0,-99.9,-100.00,ENE,64,4.0,7.0,-999,-99.99,,,-99.99,,2013-04-10 02:33:00,
2013-04-09 21:40:00,33.0,-99.9,-100.00,NE,51,2.0,4.0,-999,-99.99,,,-99.99,,2013-04-10 02:40:00,
2013-04-09 22:13:00,33.0,-99.9,-100.00,NE,51,2.0,4.0,-999,-99.99,,,-99.99,,2013-04-10 03:13:00,
2013-04-09 22:22:00,33.0,-99.9,-100.00,NE,51,2.0,4.0,-999,-99.99,,,-99.99,,2013-04-10 03:22:00,
2013-04-09 22:33:00,33.0,-99.9,-100.00,NE,51,2.0,4.0,-999,-99.99,,,-99.99,,2013-04-10 03:33:00,
2013-04-09 22:40:00,33.0,-99.9,-100.00,NE,40,11.0,14.0,-999,-99.99,,,-99.99,,2013-04-10 03:40:00,
2013-04-09 23:13:00,33.0,-99.9,-100.00,NE,40,11.0,14.0,-999,-99.99,,,-99.99,,2013-04-10 04:13:00,
2013-04-09 23:23:00,33.0,-99.9,-100.00,NE,40,11.0,14.0,-999,-99.99,,,-99.99,,2013-04-10 04:23:00,
2013-04-09 23:33:00,33.0,-99.9,-100.00,NE,40,11.0,14.0,-999,-99.99,,,-99.99,,2013-04-10 04:33:00,
2013-04-09 23:40:00,33.0,-99.9,-100.00,NE,54,9.0,11.0,-999,-99.99,,,-99.99,,2013-04-10 04:40:00,